Terminal Aerodrome Forecast
Issued by NWS Albany, NY

Home | Current Version | Previous Version | Text Only | Print | Product List | Glossary On
Versions: 1 2 3 4 5 6 7 8 9 10 11 12 13 14 15 16 17
000
FTUS41 KALY 212300
TAFGFL
TAF
KGFL 212324Z 2200/2224 01007KT P6SM VCSH OVC015
     FM220500 01006KT 4SM BR VCSH OVC020
     FM220900 01004KT 4SM BR VCSH SCT007 OVC015
     FM221500 01007KT 3SM -RA BR SCT007 OVC010=

USA.gov is the U.S. government's official web portal to all federal, state and local government web resources and services.